Time;durP1;ratioP1;P1;durP2;ratioP2;P2;SDS_P1;SDS_P2;PMS_P1;PMS_P2;Temp;Humidity;BMP_temperature;BMP_pressure;BME280_temperature;BME280_humidity;BME280_pressure;Samples;Min_cycle;Max_cycle;Signal;HPM_P1;HPM_P2
2022/11/21 00:02:04;;;;;;;14.87;5.37;;;5.80;99.90;;;;;;4976434;28;20195;-57
2022/11/21 00:04:33;;;;;;;11.30;4.87;;;5.80;99.90;;;;;;5014833;28;20210;-58
2022/11/21 00:07:01;;;;;;;13.13;4.60;;;5.80;99.90;;;;;;4961637;28;20302;-57
2022/11/21 00:09:32;;;;;;;9.80;4.93;;;5.80;99.90;;;;;;4980689;28;20204;-57
2022/11/21 00:12:00;;;;;;;14.47;5.00;;;5.80;99.90;;;;;;4976808;28;20191;-57
2022/11/21 00:14:29;;;;;;;9.90;4.77;;;5.80;99.90;;;;;;4974374;28;20207;-56
2022/11/21 00:16:57;;;;;;;18.33;4.90;;;5.80;99.90;;;;;;4980994;28;20696;-55
2022/11/21 00:19:27;;;;;;;8.50;4.33;;;5.90;99.90;;;;;;4981428;28;20235;-58
2022/11/21 00:21:55;;;;;;;17.30;5.23;;;5.90;99.90;;;;;;4987366;28;20206;-56
2022/11/21 00:24:23;;;;;;;10.77;4.07;;;5.90;99.90;;;;;;4984468;28;20199;-57
2022/11/21 00:26:52;;;;;;;11.80;5.03;;;6.00;99.90;;;;;;4979702;28;20223;-57
2022/11/21 00:29:20;;;;;;;9.73;4.47;;;6.10;99.90;;;;;;4976594;28;20199;-57
2022/11/21 00:31:48;;;;;;;11.27;4.33;;;6.10;99.90;;;;;;4983748;28;20214;-56
2022/11/21 00:34:20;;;;;;;13.13;4.80;;;6.10;99.90;;;;;;5000651;28;20211;-57
2022/11/21 00:36:50;;;;;;;14.47;5.00;;;6.20;99.90;;;;;;4977888;28;20231;-57
2022/11/21 00:39:19;;;;;;;12.70;4.30;;;6.30;99.90;;;;;;5002841;28;20211;-57
2022/11/21 00:41:48;;;;;;;16.70;4.30;;;6.30;99.90;;;;;;4981804;28;20220;-57
2022/11/21 00:44:18;;;;;;;12.03;3.93;;;6.30;99.90;;;;;;5010983;28;20190;-57
2022/11/21 00:46:46;;;;;;;10.73;4.33;;;6.30;99.90;;;;;;4982057;28;20595;-57
2022/11/21 00:49:14;;;;;;;14.87;4.73;;;6.40;99.90;;;;;;4980130;28;20202;-56
2022/11/21 00:51:42;;;;;;;10.23;4.00;;;6.40;99.90;;;;;;4976035;28;20665;-57
2022/11/21 00:54:12;;;;;;;18.73;3.70;;;6.40;99.90;;;;;;4978249;28;20199;-57
2022/11/21 00:56:41;;;;;;;3.63;2.97;;;6.40;99.90;;;;;;4980174;28;20444;-57
2022/11/21 00:59:10;;;;;;;9.40;3.50;;;6.50;99.90;;;;;;4981499;28;20214;-57
2022/11/21 01:01:38;;;;;;;9.97;3.80;;;6.50;99.90;;;;;;4978242;28;20640;-57
2022/11/21 01:04:06;;;;;;;5.90;3.20;;;6.50;99.90;;;;;;4977098;28;20203;-57
2022/11/21 01:06:37;;;;;;;9.00;3.30;;;6.50;99.90;;;;;;4973676;28;20216;-58
2022/11/21 01:09:06;;;;;;;13.47;3.50;;;6.50;99.90;;;;;;4977213;28;20195;-57
2022/11/21 01:11:35;;;;;;;13.87;3.43;;;6.50;99.90;;;;;;5014683;28;20206;-57
2022/11/21 01:14:04;;;;;;;15.17;3.87;;;6.50;99.90;;;;;;4977486;28;20614;-57
2022/11/21 01:16:32;;;;;;;12.03;3.40;;;6.50;99.90;;;;;;5007941;27;20199;-57
2022/11/21 01:19:01;;;;;;;16.17;3.30;;;6.50;99.90;;;;;;4978956;28;20226;-57
2022/11/21 01:21:31;;;;;;;8.63;3.60;;;6.50;99.90;;;;;;4986122;28;20192;-57
2022/11/21 01:24:01;;;;;;;5.80;3.20;;;6.50;99.90;;;;;;4979614;28;20213;-57
2022/11/21 01:26:31;;;;;;;12.47;3.70;;;6.50;99.90;;;;;;4983170;28;20561;-57
2022/11/21 01:29:01;;;;;;;11.57;3.10;;;6.50;99.90;;;;;;4975748;28;20208;-57
2022/11/21 01:31:31;;;;;;;9.40;3.00;;;6.40;99.90;;;;;;4983030;28;20199;-57
2022/11/21 01:34:00;;;;;;;8.73;3.33;;;6.40;99.90;;;;;;4976868;28;20199;-56
2022/11/21 01:36:30;;;;;;;8.07;3.00;;;6.30;99.90;;;;;;4981768;28;20195;-57
2022/11/21 01:39:01;;;;;;;9.03;3.43;;;6.20;99.90;;;;;;4979909;28;20310;-57
2022/11/21 01:41:32;;;;;;;7.50;3.33;;;6.10;99.90;;;;;;4984573;28;20202;-58
2022/11/21 01:44:02;;;;;;;4.70;3.07;;;6.10;99.90;;;;;;5013033;28;20202;-57
2022/11/21 01:46:30;;;;;;;4.77;2.97;;;6.00;99.90;;;;;;4982946;28;20216;-57
2022/11/21 01:49:02;;;;;;;12.07;3.47;;;5.90;99.90;;;;;;4977675;28;20199;-57
2022/11/21 01:51:33;;;;;;;6.73;2.93;;;5.80;99.90;;;;;;4972704;28;20210;-57
2022/11/21 01:54:05;;;;;;;14.13;3.10;;;5.80;99.90;;;;;;4987384;28;20664;-56
2022/11/21 01:56:39;;;;;;;8.47;3.13;;;5.80;99.90;;;;;;4973935;28;20199;-57
2022/11/21 01:59:13;;;;;;;6.97;3.40;;;5.80;99.90;;;;;;5002541;28;20672;-57
2022/11/21 02:01:44;;;;;;;8.87;2.60;;;5.70;99.90;;;;;;4970897;28;20206;-57
2022/11/21 02:04:12;;;;;;;8.30;2.97;;;5.70;99.90;;;;;;4986529;28;20196;-57
2022/11/21 02:06:40;;;;;;;9.10;3.50;;;5.70;99.90;;;;;;4979532;28;20476;-57
2022/11/21 02:09:09;;;;;;;8.20;3.17;;;5.60;99.90;;;;;;4976066;28;20210;-56
2022/11/21 02:11:41;;;;;;;9.50;3.47;;;5.60;99.90;;;;;;4977254;28;20203;-57
2022/11/21 02:14:11;;;;;;;5.07;3.30;;;5.60;99.90;;;;;;4977727;28;20208;-58
2022/11/21 02:16:40;;;;;;;11.47;3.43;;;5.60;99.90;;;;;;4976895;28;20202;-58
2022/11/21 02:19:14;;;;;;;10.00;3.20;;;5.60;99.90;;;;;;4974585;28;20237;-57
2022/11/21 02:21:48;;;;;;;8.37;3.37;;;5.60;99.90;;;;;;4978585;28;20569;-58
2022/11/21 02:24:22;;;;;;;9.00;3.00;;;5.70;99.90;;;;;;4995910;28;20198;-57
2022/11/21 02:26:52;;;;;;;6.20;3.37;;;5.80;99.90;;;;;;4977868;28;20225;-57
2022/11/21 02:29:21;;;;;;;7.07;2.87;;;5.80;99.90;;;;;;4976084;28;20203;-57
2022/11/21 02:31:49;;;;;;;7.77;2.80;;;5.90;99.90;;;;;;4973816;28;20192;-57
2022/11/21 02:34:18;;;;;;;9.23;2.87;;;5.90;99.90;;;;;;4981656;28;20661;-57
2022/11/21 02:36:47;;;;;;;12.90;2.97;;;6.00;99.90;;;;;;4976742;28;20666;-57
2022/11/21 02:39:20;;;;;;;7.63;3.00;;;6.00;99.90;;;;;;4975518;28;20187;-57
2022/11/21 02:41:58;;;;;;;7.00;2.70;;;6.00;99.90;;;;;;4984479;28;20230;-57
2022/11/21 02:44:31;;;;;;;5.17;2.77;;;6.00;99.90;;;;;;4975992;28;20202;-57
2022/11/21 02:46:59;;;;;;;8.23;2.67;;;6.00;99.90;;;;;;4975602;28;20219;-57
2022/11/21 02:49:37;;;;;;;5.63;2.80;;;6.10;99.90;;;;;;4977436;28;20221;-57
2022/11/21 02:52:06;;;;;;;6.87;3.03;;;6.10;99.90;;;;;;4974309;28;20195;-57
2022/11/21 02:54:34;;;;;;;9.40;2.80;;;6.10;99.90;;;;;;4973919;28;20585;-57
2022/11/21 02:57:04;;;;;;;7.87;2.93;;;6.10;99.90;;;;;;4977027;28;20697;-58
2022/11/21 02:59:32;;;;;;;7.27;2.63;;;6.10;99.90;;;;;;4972011;28;20201;-57
2022/11/21 03:02:01;;;;;;;4.53;2.53;;;6.10;99.90;;;;;;4977527;28;20203;-57
2022/11/21 03:04:29;;;;;;;5.57;2.53;;;6.10;99.90;;;;;;4973395;28;20207;-57
2022/11/21 03:06:57;;;;;;;6.30;2.70;;;6.10;99.90;;;;;;4976629;28;20199;-57
2022/11/21 03:09:26;;;;;;;5.90;2.37;;;6.10;99.90;;;;;;4982266;28;20202;-58
2022/11/21 03:11:54;;;;;;;9.30;2.70;;;6.10;99.90;;;;;;5010582;28;20199;-57
2022/11/21 03:14:25;;;;;;;8.07;3.07;;;6.10;99.90;;;;;;4979404;28;20210;-57
2022/11/21 03:16:54;;;;;;;5.87;2.53;;;6.20;99.90;;;;;;4977019;28;20215;-57
2022/11/21 03:19:23;;;;;;;11.00;3.00;;;6.20;99.90;;;;;;4977600;28;20299;-57
2022/11/21 03:21:53;;;;;;;7.30;2.83;;;6.20;99.90;;;;;;4995433;28;20207;-57
2022/11/21 03:24:22;;;;;;;5.27;2.50;;;6.20;99.90;;;;;;5014560;28;20199;-58
2022/11/21 03:26:50;;;;;;;8.80;3.10;;;6.30;99.90;;;;;;5016843;28;20198;-57
2022/11/21 03:29:19;;;;;;;4.87;2.83;;;6.30;99.90;;;;;;4975578;28;20220;-57
2022/11/21 03:31:48;;;;;;;9.73;2.70;;;6.30;99.90;;;;;;4974917;28;20222;-58
2022/11/21 03:34:16;;;;;;;8.90;2.80;;;6.30;99.90;;;;;;4979986;28;20219;-57
2022/11/21 03:36:45;;;;;;;7.63;2.97;;;6.20;99.90;;;;;;4971333;28;20199;-57
2022/11/21 03:39:13;;;;;;;8.80;3.27;;;6.30;99.90;;;;;;4977797;28;20187;-58
2022/11/21 03:41:42;;;;;;;12.20;4.03;;;6.30;99.90;;;;;;4969933;28;20229;-57
2022/11/21 03:44:11;;;;;;;5.07;2.90;;;6.20;99.90;;;;;;4972761;28;20661;-57
2022/11/21 03:46:42;;;;;;;8.77;2.90;;;6.20;99.90;;;;;;4981123;28;20206;-57
2022/11/21 03:49:12;;;;;;;4.80;2.70;;;6.30;99.90;;;;;;4979064;28;20685;-57
2022/11/21 03:51:41;;;;;;;5.27;2.87;;;6.30;99.90;;;;;;4984370;28;20205;-56
2022/11/21 03:54:10;;;;;;;10.50;2.97;;;6.30;99.90;;;;;;4988162;28;20196;-57
2022/11/21 03:56:39;;;;;;;4.40;2.50;;;6.30;99.90;;;;;;4980615;28;20627;-57
2022/11/21 03:59:07;;;;;;;8.07;2.73;;;6.20;99.90;;;;;;4972871;28;20203;-57
2022/11/21 04:01:35;;;;;;;9.00;2.60;;;6.20;99.90;;;;;;4977688;28;20194;-55
2022/11/21 04:04:04;;;;;;;5.03;2.73;;;6.10;99.90;;;;;;4979213;28;20251;-58
2022/11/21 04:06:34;;;;;;;5.13;2.60;;;6.10;99.90;;;;;;4979624;28;20256;-57
2022/11/21 04:09:02;;;;;;;7.83;2.60;;;6.10;99.90;;;;;;4986561;28;20219;-57
2022/11/21 04:11:30;;;;;;;10.63;2.50;;;6.00;99.90;;;;;;4978817;28;20238;-57
2022/11/21 04:13:59;;;;;;;8.23;2.50;;;6.10;99.90;;;;;;4979758;28;20202;-57
2022/11/21 04:16:27;;;;;;;8.20;2.63;;;6.00;99.90;;;;;;4978595;28;20199;-57
2022/11/21 04:18:55;;;;;;;6.43;2.70;;;6.00;99.90;;;;;;4979632;28;20267;-57
2022/11/21 04:21:24;;;;;;;7.83;2.67;;;6.00;99.90;;;;;;4975413;28;20210;-57
2022/11/21 04:23:53;;;;;;;11.97;2.90;;;5.90;99.90;;;;;;4980899;28;20199;-57
2022/11/21 04:26:21;;;;;;;6.63;2.40;;;5.80;99.90;;;;;;4984536;28;20200;-57
2022/11/21 04:28:50;;;;;;;5.43;2.67;;;5.80;99.90;;;;;;4975197;28;20217;-57
2022/11/21 04:31:20;;;;;;;8.57;2.43;;;5.70;99.90;;;;;;4978264;28;20284;-57
2022/11/21 04:33:48;;;;;;;8.30;2.80;;;5.60;99.90;;;;;;4977133;28;20203;-57
2022/11/21 04:36:17;;;;;;;8.40;2.40;;;5.50;99.90;;;;;;4980380;28;20222;-57
2022/11/21 04:38:45;;;;;;;4.93;2.50;;;5.40;99.90;;;;;;4975637;28;20203;-57
2022/11/21 04:41:15;;;;;;;6.80;2.43;;;5.40;99.90;;;;;;4979738;28;20195;-57
2022/11/21 04:43:43;;;;;;;8.00;2.80;;;5.30;99.90;;;;;;4976670;28;20207;-57
2022/11/21 04:46:11;;;;;;;8.83;3.00;;;5.20;99.90;;;;;;4980163;28;20199;-57
2022/11/21 04:48:42;;;;;;;10.23;2.77;;;5.20;99.90;;;;;;4972834;28;20223;-57
2022/11/21 04:51:13;;;;;;;8.50;3.00;;;5.10;99.90;;;;;;4984171;28;20861;-57
2022/11/21 04:53:41;;;;;;;6.20;2.77;;;5.00;99.90;;;;;;4982912;28;20195;-57
2022/11/21 04:56:13;;;;;;;5.17;3.00;;;5.00;99.90;;;;;;4979044;28;20203;-57
2022/11/21 04:58:43;;;;;;;6.43;2.57;;;4.90;99.90;;;;;;4979093;28;20192;-57
2022/11/21 05:01:12;;;;;;;6.20;2.73;;;4.80;99.90;;;;;;5005599;28;20562;-55
2022/11/21 05:03:40;;;;;;;6.23;2.90;;;4.80;99.90;;;;;;4977703;28;20200;-57
2022/11/21 05:06:08;;;;;;;6.67;2.77;;;4.70;99.90;;;;;;4978671;28;20266;-57
2022/11/21 05:08:37;;;;;;;4.67;2.67;;;4.70;99.90;;;;;;4977107;28;20222;-56
2022/11/21 05:13:54;;;;;;;6.17;3.10;;;4.70;99.90;;;;;;4976768;28;20222;-57
2022/11/21 05:16:23;;;;;;;6.20;2.77;;;4.70;99.90;;;;;;4981322;28;20199;-57
2022/11/21 05:18:51;;;;;;;4.87;2.50;;;4.70;99.90;;;;;;4980617;28;20195;-57
2022/11/21 05:21:19;;;;;;;6.13;2.83;;;4.70;99.90;;;;;;4980671;28;20245;-57
2022/11/21 05:23:47;;;;;;;7.47;2.70;;;4.70;99.90;;;;;;4977610;28;20554;-56
2022/11/21 05:26:16;;;;;;;6.10;2.80;;;4.60;99.90;;;;;;4981615;28;20381;-55
2022/11/21 05:28:46;;;;;;;8.93;2.70;;;4.60;99.90;;;;;;4976610;28;20217;-57
2022/11/21 05:31:16;;;;;;;8.33;2.90;;;4.60;99.90;;;;;;4980215;28;20229;-57
2022/11/21 05:33:44;;;;;;;7.73;3.10;;;4.50;99.90;;;;;;4978382;28;20191;-56
2022/11/21 05:36:12;;;;;;;5.53;2.77;;;4.50;99.90;;;;;;4987427;28;20282;-56
2022/11/21 05:38:41;;;;;;;6.70;3.23;;;4.40;99.90;;;;;;4977441;28;20202;-56
2022/11/21 05:41:09;;;;;;;16.00;3.70;;;4.30;99.90;;;;;;4991954;28;20203;-57
2022/11/21 05:43:45;;;;;;;3.83;2.77;;;4.30;99.90;;;;;;5012659;28;20202;-57
2022/11/21 05:46:16;;;;;;;10.70;3.03;;;4.30;99.90;;;;;;4979470;28;20191;-57
2022/11/21 05:48:45;;;;;;;6.50;2.70;;;4.20;99.90;;;;;;4974570;28;20215;-57
2022/11/21 05:51:13;;;;;;;11.10;2.93;;;4.10;99.90;;;;;;4980095;28;20199;-57
2022/11/21 05:53:42;;;;;;;6.97;3.30;;;4.10;99.90;;;;;;4995926;28;20195;-57
2022/11/21 05:56:13;;;;;;;7.83;3.37;;;4.10;99.90;;;;;;4994038;28;20436;-55
2022/11/21 05:58:42;;;;;;;3.37;3.00;;;4.10;99.90;;;;;;4975737;28;20206;-57
2022/11/21 06:01:13;;;;;;;7.60;2.87;;;4.10;99.90;;;;;;4981439;28;20531;-56
2022/11/21 06:03:42;;;;;;;9.67;2.90;;;4.10;99.90;;;;;;4977905;28;20192;-57
2022/11/21 06:06:12;;;;;;;8.10;2.90;;;4.10;99.90;;;;;;4975255;28;20595;-56
2022/11/21 06:08:42;;;;;;;5.47;3.00;;;4.10;99.90;;;;;;4976443;28;20697;-57
2022/11/21 06:11:12;;;;;;;9.83;2.80;;;4.00;99.90;;;;;;4979461;28;20190;-57
2022/11/21 06:13:40;;;;;;;7.40;3.20;;;4.00;99.90;;;;;;4972073;28;20789;-57
2022/11/21 06:16:11;;;;;;;10.97;4.17;;;4.00;99.90;;;;;;4983978;28;20681;-57
2022/11/21 06:18:41;;;;;;;10.03;3.10;;;3.90;99.90;;;;;;4975478;28;20199;-55
2022/11/21 06:21:14;;;;;;;6.37;3.37;;;3.90;99.90;;;;;;4982760;28;20197;-57
2022/11/21 06:23:42;;;;;;;9.07;3.07;;;3.90;99.90;;;;;;5012766;28;20195;-57
2022/11/21 06:26:13;;;;;;;5.53;3.20;;;3.90;99.90;;;;;;4977558;28;20247;-58
2022/11/21 06:28:42;;;;;;;9.93;3.20;;;3.80;99.90;;;;;;4977952;28;20574;-57
2022/11/21 06:31:12;;;;;;;5.90;3.50;;;3.90;99.90;;;;;;4969940;28;20337;-56
2022/11/21 06:33:41;;;;;;;7.97;3.30;;;3.80;99.90;;;;;;4978465;28;20191;-57
2022/11/21 06:36:13;;;;;;;12.13;3.77;;;3.80;99.90;;;;;;4986442;28;20538;-57
2022/11/21 06:38:42;;;;;;;7.13;3.47;;;3.90;99.90;;;;;;4991109;28;20206;-55
2022/11/21 06:41:13;;;;;;;5.83;3.10;;;3.80;99.90;;;;;;4979482;28;20199;-55
2022/11/21 06:43:42;;;;;;;5.37;3.33;;;3.80;99.90;;;;;;4974902;28;20213;-56
2022/11/21 06:46:11;;;;;;;12.20;3.60;;;3.70;99.90;;;;;;4974710;28;20197;-55
2022/11/21 06:48:40;;;;;;;7.50;3.90;;;3.70;99.90;;;;;;4982481;28;20199;-57
2022/11/21 06:51:12;;;;;;;12.80;4.33;;;3.70;99.90;;;;;;5011253;28;20210;-56
2022/11/21 06:53:41;;;;;;;10.33;4.00;;;3.70;99.90;;;;;;4987662;28;20210;-56
2022/11/21 06:56:09;;;;;;;10.63;4.63;;;3.70;99.90;;;;;;4995819;28;20222;-57
2022/11/21 06:58:40;;;;;;;7.40;4.50;;;3.70;99.90;;;;;;4982144;28;20187;-56
2022/11/21 07:01:12;;;;;;;14.77;5.37;;;3.60;99.90;;;;;;4976334;28;20200;-55
2022/11/21 07:03:40;;;;;;;11.30;5.53;;;3.60;99.90;;;;;;4979909;28;20190;-56
2022/11/21 07:06:08;;;;;;;14.50;5.10;;;3.60;99.90;;;;;;4987591;28;20206;-57
2022/11/21 07:08:39;;;;;;;11.93;5.27;;;3.70;99.90;;;;;;4986556;28;20199;-56
2022/11/21 07:11:09;;;;;;;13.10;4.67;;;3.60;99.90;;;;;;4983226;28;20207;-57
2022/11/21 07:13:52;;;;;;;14.33;4.90;;;3.60;99.90;;;;;;4973681;28;20244;-56
2022/11/21 07:16:20;;;;;;;21.47;4.23;;;3.70;99.90;;;;;;5000530;28;20206;-56
2022/11/21 07:18:49;;;;;;;10.23;4.17;;;3.70;99.90;;;;;;4977924;28;20203;-56
2022/11/21 07:21:17;;;;;;;12.00;4.30;;;3.70;99.90;;;;;;4972260;28;20195;-56
2022/11/21 07:23:47;;;;;;;9.80;4.10;;;3.80;99.90;;;;;;4980604;28;20282;-56
2022/11/21 07:26:15;;;;;;;9.43;4.10;;;3.80;99.90;;;;;;4990950;28;20264;-56
2022/11/21 07:28:44;;;;;;;9.60;4.37;;;3.80;99.90;;;;;;4987267;28;20194;-57
2022/11/21 07:31:12;;;;;;;17.73;5.00;;;3.80;99.90;;;;;;4986916;28;20215;-57
2022/11/21 07:33:43;;;;;;;12.47;3.97;;;3.80;99.90;;;;;;5067609;28;20277;-56
2022/11/21 07:36:11;;;;;;;14.73;4.23;;;3.90;99.90;;;;;;4987490;28;20191;-55
2022/11/21 07:38:41;;;;;;;8.93;3.80;;;3.90;99.90;;;;;;4981865;28;20199;-56
2022/11/21 07:41:11;;;;;;;10.93;4.30;;;3.90;99.90;;;;;;4980417;28;20244;-57
2022/11/21 07:43:39;;;;;;;9.13;4.67;;;3.90;99.90;;;;;;4982628;28;20206;-57
2022/11/21 07:46:08;;;;;;;14.23;4.47;;;3.90;99.90;;;;;;4982682;28;20198;-57
2022/11/21 07:48:36;;;;;;;14.53;4.37;;;3.90;99.90;;;;;;4983096;28;20211;-57
2022/11/21 07:51:05;;;;;;;13.10;4.73;;;4.00;99.90;;;;;;4979547;28;20670;-55
2022/11/21 07:53:34;;;;;;;8.23;4.27;;;4.00;99.90;;;;;;4987496;28;20654;-56
2022/11/21 07:56:02;;;;;;;10.40;4.03;;;4.10;99.90;;;;;;4988079;28;20187;-55
2022/11/21 07:58:31;;;;;;;20.70;4.67;;;4.10;99.90;;;;;;4985568;28;20202;-56
2022/11/21 08:01:03;;;;;;;16.70;4.70;;;4.20;99.90;;;;;;4968624;28;20203;-57
2022/11/21 08:03:31;;;;;;;9.30;3.77;;;4.20;99.90;;;;;;4969618;28;20200;-57
2022/11/21 08:06:02;;;;;;;15.13;4.37;;;4.30;99.90;;;;;;4988170;28;20202;-57
2022/11/21 08:08:32;;;;;;;11.83;4.50;;;4.30;99.90;;;;;;4986363;28;20192;-56
2022/11/21 08:11:04;;;;;;;10.93;3.83;;;4.30;99.90;;;;;;4968328;28;20215;-56
2022/11/21 08:13:35;;;;;;;12.57;4.50;;;4.30;99.90;;;;;;4979755;28;20199;-56
2022/11/21 08:16:03;;;;;;;12.30;4.80;;;4.40;99.90;;;;;;4967489;28;20223;-57
2022/11/21 08:18:32;;;;;;;21.07;5.47;;;4.50;99.90;;;;;;4975226;28;20658;-56
2022/11/21 08:21:02;;;;;;;11.63;4.20;;;4.50;99.90;;;;;;4966962;28;20235;-57
2022/11/21 08:23:30;;;;;;;17.70;4.80;;;4.60;99.90;;;;;;4980393;28;20575;-56
2022/11/21 08:25:58;;;;;;;17.17;4.60;;;4.70;99.90;;;;;;4997379;28;20203;-56
2022/11/21 08:28:27;;;;;;;13.10;4.23;;;4.80;99.90;;;;;;4969719;28;20306;-56
2022/11/21 08:30:57;;;;;;;9.73;3.80;;;4.80;99.90;;;;;;4969260;28;20218;-57
2022/11/21 08:33:25;;;;;;;12.30;4.00;;;4.80;99.90;;;;;;4967799;28;20214;-57
2022/11/21 08:35:54;;;;;;;15.40;6.73;;;4.90;99.90;;;;;;4984316;28;20207;-57
2022/11/21 08:38:22;;;;;;;20.13;8.87;;;4.90;99.90;;;;;;4990103;28;20195;-57
2022/11/21 08:42:01;;;;;;;18.27;8.00;;;4.90;99.90;;;;;;4974400;28;20204;-57
2022/11/21 08:43:44;;;;;;;18.33;6.20;;;5.00;99.90;;;;;;4971115;28;20279;-57
2022/11/21 08:46:14;;;;;;;13.57;4.97;;;5.00;99.90;;;;;;4984589;28;20209;-56
2022/11/21 08:48:45;;;;;;;11.47;5.07;;;5.10;99.90;;;;;;4976910;28;20654;-57
2022/11/21 08:51:13;;;;;;;11.00;4.23;;;5.10;99.90;;;;;;4989561;28;20576;-57
2022/11/21 08:53:41;;;;;;;10.43;4.33;;;5.10;99.90;;;;;;4989019;28;20201;-57
2022/11/21 08:56:12;;;;;;;13.37;5.00;;;5.20;99.90;;;;;;4973120;28;20291;-56
2022/11/21 08:58:40;;;;;;;9.77;4.27;;;5.30;99.90;;;;;;4970831;28;20905;-56
2022/11/21 09:01:08;;;;;;;10.27;4.60;;;5.30;99.90;;;;;;4983097;28;20191;-57
2022/11/21 09:03:38;;;;;;;11.20;4.03;;;5.30;99.90;;;;;;4988538;28;20202;-57
2022/11/21 09:06:07;;;;;;;8.67;4.37;;;5.40;99.90;;;;;;4985927;28;20585;-57
2022/11/21 09:08:36;;;;;;;15.60;7.57;;;5.50;99.90;;;;;;5074388;28;20573;-57
2022/11/21 09:11:05;;;;;;;12.03;5.80;;;5.50;99.90;;;;;;4974921;28;20546;-57
2022/11/21 09:13:34;;;;;;;9.70;4.67;;;5.60;99.90;;;;;;4983254;28;20680;-56
2022/11/21 09:18:52;;;;;;;13.20;4.13;;;5.80;99.90;;;;;;4970858;28;20269;-55
2022/11/21 09:21:21;;;;;;;7.00;3.90;;;6.00;99.90;;;;;;4970667;28;20200;-57
2022/11/21 09:23:50;;;;;;;11.20;5.43;;;6.30;99.90;;;;;;4980491;28;20216;-57
2022/11/21 09:26:20;;;;;;;20.90;9.93;;;6.40;99.90;;;;;;4980427;28;20203;-57
2022/11/21 09:28:48;;;;;;;11.20;4.73;;;6.60;99.90;;;;;;4990098;28;20192;-58
2022/11/21 09:31:16;;;;;;;8.00;4.97;;;6.70;99.90;;;;;;4986210;28;20210;-57
2022/11/21 09:33:45;;;;;;;15.33;4.77;;;6.90;99.90;;;;;;4987584;28;20195;-57
2022/11/21 09:36:21;;;;;;;9.97;5.27;;;7.10;99.90;;;;;;4974624;28;20207;-55
2022/11/21 09:38:52;;;;;;;13.13;5.50;;;7.30;99.90;;;;;;4970373;28;20199;-57
2022/11/21 09:44:39;;;;;;;10.27;3.93;;;7.70;99.90;;;;;;4970046;28;20198;-57
2022/11/21 09:47:21;;;;;;;11.07;4.53;;;8.10;99.90;;;;;;4986694;28;20679;-56
2022/11/21 09:49:55;;;;;;;13.33;5.93;;;8.30;99.90;;;;;;4988845;28;20194;-57
2022/11/21 09:52:30;;;;;;;7.63;3.87;;;8.30;99.90;;;;;;4969035;28;20265;-57
2022/11/21 09:55:02;;;;;;;10.87;4.23;;;8.10;99.90;;;;;;4970087;28;20214;-56
2022/11/21 09:57:34;;;;;;;10.20;4.40;;;8.00;99.90;;;;;;4970525;28;20662;-55
2022/11/21 10:00:12;;;;;;;12.87;4.77;;;7.90;99.90;;;;;;4989901;28;20638;-57
2022/11/21 10:02:40;;;;;;;19.20;5.87;;;7.70;99.90;;;;;;4975109;28;20195;-55
2022/11/21 10:05:13;;;;;;;15.17;6.10;;;7.40;99.90;;;;;;4986670;28;20209;-57
2022/11/21 10:07:44;;;;;;;28.80;14.47;;;7.10;99.90;;;;;;4970083;28;20204;-57
2022/11/21 10:10:28;;;;;;;16.80;6.90;;;7.00;99.90;;;;;;4969671;28;20670;-57
2022/11/21 10:13:09;;;;;;;16.63;6.60;;;6.90;99.90;;;;;;4979558;28;20198;-57
2022/11/21 10:15:52;;;;;;;14.57;7.03;;;6.80;99.90;;;;;;4985764;28;21220;-57
2022/11/21 10:18:44;;;;;;;20.20;9.03;;;6.70;99.90;;;;;;4978050;28;20195;-56
2022/11/21 10:21:25;;;;;;;13.23;7.50;;;6.70;99.90;;;;;;4976994;28;20206;-57
2022/11/21 10:24:12;;;;;;;16.03;8.50;;;6.70;99.90;;;;;;5002178;28;20283;-58
2022/11/21 10:26:49;;;;;;;20.87;11.70;;;6.70;99.90;;;;;;4980906;28;20207;-56
2022/11/21 10:29:24;;;;;;;15.63;7.53;;;6.80;99.90;;;;;;4979679;28;20210;-56
2022/11/21 10:31:56;;;;;;;14.07;7.90;;;6.80;99.90;;;;;;4976411;28;20207;-57
2022/11/21 10:34:29;;;;;;;14.17;8.33;;;6.80;99.90;;;;;;4989564;28;20196;-57
2022/11/21 10:37:01;;;;;;;11.93;7.47;;;6.80;99.90;;;;;;4969635;28;20199;-57
2022/11/21 10:39:41;;;;;;;15.50;9.03;;;6.90;99.90;;;;;;4969283;28;20192;-57
2022/11/21 10:42:17;;;;;;;13.67;7.60;;;6.90;99.90;;;;;;4980789;28;20229;-55
2022/11/21 10:47:40;;;;;;;20.27;8.33;;;7.00;99.90;;;;;;5066425;28;20215;-57
2022/11/21 10:50:31;;;;;;;20.37;7.73;;;7.10;99.90;;;;;;4989007;28;20198;-56
2022/11/21 10:54:31;;;;;;;13.50;6.73;;;7.20;99.90;;;;;;4969420;28;20237;-57
2022/11/21 10:56:02;;;;;;;14.60;6.87;;;7.30;99.90;;;;;;4972579;28;20199;-57
2022/11/21 10:58:39;;;;;;;11.10;6.57;;;7.40;99.90;;;;;;4967010;28;20214;-54
2022/11/21 11:01:27;;;;;;;13.60;6.63;;;7.50;99.90;;;;;;4967636;28;20622;-56
2022/11/21 11:04:17;;;;;;;15.07;6.30;;;7.50;99.90;;;;;;4969400;28;20677;-57
2022/11/21 11:06:58;;;;;;;13.27;6.00;;;7.60;99.90;;;;;;4979292;28;20207;-57
2022/11/21 11:09:30;;;;;;;19.77;10.27;;;7.60;99.90;;;;;;4988211;28;20183;-57
2022/11/21 11:12:22;;;;;;;8.73;6.37;;;7.60;99.90;;;;;;4977342;28;20207;-57
2022/11/21 11:14:54;;;;;;;16.00;8.70;;;7.60;99.90;;;;;;4970226;28;20188;-57
2022/11/21 11:17:31;;;;;;;12.50;6.97;;;7.60;99.90;;;;;;4980601;28;20288;-57
2022/11/21 11:20:01;;;;;;;13.40;6.47;;;7.70;99.90;;;;;;4983262;28;20235;-57
2022/11/21 11:22:30;;;;;;;12.33;6.80;;;7.70;99.90;;;;;;4970306;28;20282;-57
2022/11/21 11:24:59;;;;;;;13.97;6.53;;;7.70;99.90;;;;;;5030189;28;20205;-57
2022/11/21 11:27:30;;;;;;;16.63;6.60;;;7.70;99.90;;;;;;5026769;28;20296;-56
2022/11/21 11:30:06;;;;;;;11.97;7.07;;;7.70;99.90;;;;;;4977553;28;20207;-57
2022/11/21 11:32:40;;;;;;;19.80;6.63;;;7.70;99.90;;;;;;5014963;28;20276;-57
2022/11/21 11:35:22;;;;;;;12.50;6.97;;;7.80;99.90;;;;;;4989160;28;20197;-57
2022/11/21 11:38:00;;;;;;;14.40;7.07;;;7.80;99.90;;;;;;4982936;28;20191;-56
2022/11/21 11:40:32;;;;;;;10.97;7.37;;;7.80;99.90;;;;;;4988748;28;20241;-56
2022/11/21 11:49:13;;;;;;;13.10;7.47;;;7.90;99.90;;;;;;5016491;28;20211;-57
2022/11/21 11:51:54;;;;;;;24.77;12.37;;;8.00;99.90;;;;;;5087160;28;20557;-56
2022/11/21 11:54:27;;;;;;;13.07;8.03;;;8.00;99.90;;;;;;5015385;28;20226;-57
2022/11/21 11:56:57;;;;;;;12.63;6.70;;;8.00;99.90;;;;;;4969553;28;20535;-57
2022/11/21 11:59:33;;;;;;;15.43;7.33;;;8.00;99.90;;;;;;5001788;28;20648;-56
2022/11/21 12:02:06;;;;;;;14.60;6.77;;;8.00;99.90;;;;;;5002187;28;20205;-57
2022/11/21 12:04:46;;;;;;;15.70;8.13;;;8.10;99.90;;;;;;5000173;28;20190;-57
2022/11/21 12:07:19;;;;;;;13.97;7.27;;;8.10;99.90;;;;;;5023546;28;20223;-56
2022/11/21 12:10:16;;;;;;;14.17;6.37;;;8.10;99.90;;;;;;4968818;28;20200;-56
2022/11/21 12:12:49;;;;;;;12.80;7.20;;;8.10;99.90;;;;;;4980653;28;20215;-56
2022/11/21 12:18:19;;;;;;;23.53;8.97;;;8.20;99.90;;;;;;4979006;28;20210;-57
2022/11/21 12:20:59;;;;;;;20.33;10.57;;;8.20;99.90;;;;;;4990750;28;20238;-55
2022/11/21 12:23:31;;;;;;;11.47;6.00;;;8.20;99.90;;;;;;4981202;28;20647;-57
2022/11/21 12:26:17;;;;;;;23.47;8.53;;;8.30;99.90;;;;;;4975305;28;20191;-56
2022/11/21 12:29:02;;;;;;;16.77;6.53;;;8.30;99.90;;;;;;4982146;28;20182;-55
2022/11/21 12:31:44;;;;;;;21.47;6.50;;;8.40;99.90;;;;;;4978583;28;20202;-57
2022/11/21 12:34:27;;;;;;;15.07;5.97;;;8.40;99.90;;;;;;4974462;28;20199;-56
2022/11/21 12:37:04;;;;;;;13.83;6.63;;;8.40;99.90;;;;;;5013212;28;20206;-57
2022/11/21 12:39:58;;;;;;;21.57;6.90;;;8.40;99.90;;;;;;4973967;28;20210;-57
2022/11/21 12:42:49;;;;;;;34.20;14.03;;;8.40;99.90;;;;;;5018180;28;20198;-56
2022/11/21 12:45:28;;;;;;;16.73;6.20;;;8.50;99.90;;;;;;4991713;28;20548;-57
2022/11/21 12:54:49;;;;;;;10.67;5.63;;;8.70;99.90;;;;;;4980378;28;20207;-57
2022/11/21 12:57:19;;;;;;;18.13;6.43;;;8.70;99.90;;;;;;4972503;28;20191;-57
2022/11/21 12:59:59;;;;;;;13.90;7.60;;;8.60;99.90;;;;;;5000243;28;20199;-56
2022/11/21 13:02:34;;;;;;;17.03;7.27;;;8.70;99.90;;;;;;4988468;28;20263;-57
2022/11/21 13:05:10;;;;;;;16.00;6.47;;;8.70;99.90;;;;;;4974421;28;20284;-58
2022/11/21 13:07:39;;;;;;;14.23;5.90;;;8.70;99.90;;;;;;4990790;28;20225;-58
2022/11/21 13:10:14;;;;;;;20.67;6.33;;;8.80;99.90;;;;;;4980345;28;20625;-58
2022/11/21 13:12:48;;;;;;;12.30;6.50;;;8.80;99.90;;;;;;4980364;28;20247;-57
2022/11/21 13:15:24;;;;;;;10.70;5.47;;;8.70;99.90;;;;;;4971873;28;20545;-57
2022/11/21 13:17:56;;;;;;;18.30;7.30;;;8.70;99.90;;;;;;4984027;28;20226;-57
2022/11/21 13:20:30;;;;;;;24.67;11.43;;;8.80;99.90;;;;;;4971544;28;20231;-57
2022/11/21 13:23:02;;;;;;;9.57;5.30;;;8.80;99.90;;;;;;4971279;28;20183;-58
2022/11/21 13:25:47;;;;;;;18.60;7.83;;;8.80;99.90;;;;;;4987416;28;20198;-57
2022/11/21 13:28:33;;;;;;;20.43;8.80;;;8.80;99.90;;;;;;4989829;28;20187;-57
2022/11/21 13:31:25;;;;;;;18.47;9.67;;;8.80;99.90;;;;;;4979302;28;20203;-57
2022/11/21 13:33:54;;;;;;;12.90;6.40;;;8.80;99.90;;;;;;4981532;28;20231;-57
2022/11/21 13:36:43;;;;;;;16.00;6.30;;;8.80;99.90;;;;;;4962818;28;20195;-57
2022/11/21 13:39:36;;;;;;;9.73;5.43;;;8.90;99.90;;;;;;4977875;28;20195;-57
2022/11/21 13:44:54;;;;;;;10.73;4.53;;;8.90;99.90;;;;;;4983766;28;20246;-58